Terminal Aerodrome Forecast
Issued by NWS

Home | Current Version | Previous Version | Text Only | Print | Product List | Glossary On
Versions: 1 2 3 4 5 6 7 8 9 10 11 12 13 14 15 16 17 18 19 20 21
086
FTUS45 KABQ 302334
TAFLVS
TAF
KLVS 302334Z 0100/0124 13012G20KT P6SM VCSH BKN060
     FM010100 07014G22KT P6SM VCSH OVC035
     FM010300 03015G25KT 4SM -RA OVC010
     FM010600 02018G30KT 1SM -RASN BR OVC003
     FM011500 02015G25KT 3SM -RASN BR OVC008
     FM011900 04012G18KT 3SM -RA BR BKN012 OVC030=

USA.gov is the U.S. government's official web portal to all federal, state and local government web resources and services.